sensor_id;sensor_type;location;lat;lon;timestamp;pressure;altitude;pressure_sealevel;temperature;humidity
42887;BME280;29032;56.028;92.904;2023-09-30T00:03:24;99609.44;;;9.46;59.04
42887;BME280;29032;56.028;92.904;2023-09-30T00:08:27;99608.91;;;9.59;59.10
42887;BME280;29032;56.028;92.904;2023-09-30T00:13:29;99606.66;;;9.52;59.36
42887;BME280;29032;56.028;92.904;2023-09-30T00:18:31;99604.13;;;9.59;59.50
42887;BME280;29032;56.028;92.904;2023-09-30T00:23:35;99612.84;;;9.75;59.40
42887;BME280;29032;56.028;92.904;2023-09-30T00:28:37;99607.00;;;9.89;59.67
42887;BME280;29032;56.028;92.904;2023-09-30T00:33:39;99608.66;;;10.09;59.38
42887;BME280;29032;56.028;92.904;2023-09-30T00:38:42;99605.75;;;10.26;59.20
42887;BME280;29032;56.028;92.904;2023-09-30T00:43:46;99618.81;;;10.37;58.95
42887;BME280;29032;56.028;92.904;2023-09-30T00:48:48;99620.09;;;10.36;58.91
42887;BME280;29032;56.028;92.904;2023-09-30T00:53:53;99623.78;;;10.49;58.53
42887;BME280;29032;56.028;92.904;2023-09-30T00:58:56;99621.50;;;10.48;58.57
42887;BME280;29032;56.028;92.904;2023-09-30T01:03:58;99622.72;;;10.52;58.54
42887;BME280;29032;56.028;92.904;2023-09-30T01:09:02;99624.19;;;10.59;58.69
42887;BME280;29032;56.028;92.904;2023-09-30T01:14:05;99619.44;;;10.54;58.79
42887;BME280;29032;56.028;92.904;2023-09-30T01:19:07;99620.91;;;10.61;58.88
42887;BME280;29032;56.028;92.904;2023-09-30T01:24:10;99608.78;;;10.64;59.47
42887;BME280;29032;56.028;92.904;2023-09-30T01:29:12;99615.38;;;10.55;59.76
42887;BME280;29032;56.028;92.904;2023-09-30T01:34:14;99606.47;;;10.68;59.65
42887;BME280;29032;56.028;92.904;2023-09-30T01:39:18;99598.81;;;10.79;59.60
42887;BME280;29032;56.028;92.904;2023-09-30T01:44:20;99600.81;;;10.85;58.46
42887;BME280;29032;56.028;92.904;2023-09-30T01:49:22;99595.44;;;10.92;58.83
42887;BME280;29032;56.028;92.904;2023-09-30T01:54:25;99595.25;;;11.09;58.55
42887;BME280;29032;56.028;92.904;2023-09-30T01:59:27;99592.97;;;11.13;58.82
42887;BME280;29032;56.028;92.904;2023-09-30T02:04:29;99596.34;;;11.25;58.25
42887;BME280;29032;56.028;92.904;2023-09-30T02:09:33;99577.31;;;11.34;58.95
42887;BME280;29032;56.028;92.904;2023-09-30T02:14:38;99579.22;;;11.45;58.53
42887;BME280;29032;56.028;92.904;2023-09-30T02:19:40;99582.28;;;11.42;58.67
42887;BME280;29032;56.028;92.904;2023-09-30T02:24:43;99573.06;;;11.52;58.95
42887;BME280;29032;56.028;92.904;2023-09-30T02:29:45;99578.56;;;11.58;58.64
42887;BME280;29032;56.028;92.904;2023-09-30T02:34:47;99579.91;;;11.70;58.01
42887;BME280;29032;56.028;92.904;2023-09-30T02:39:51;99584.88;;;11.77;58.18
42887;BME280;29032;56.028;92.904;2023-09-30T02:44:53;99589.38;;;11.80;57.44
42887;BME280;29032;56.028;92.904;2023-09-30T02:49:56;99585.03;;;11.85;57.97
42887;BME280;29032;56.028;92.904;2023-09-30T02:55:00;99575.34;;;11.91;57.40
42887;BME280;29032;56.028;92.904;2023-09-30T03:00:03;99577.81;;;11.95;57.58
42887;BME280;29032;56.028;92.904;2023-09-30T03:05:06;99573.06;;;12.09;58.22
42887;BME280;29032;56.028;92.904;2023-09-30T03:10:10;99564.94;;;12.30;56.64
42887;BME280;29032;56.028;92.904;2023-09-30T03:15:12;99563.03;;;12.38;56.72
42887;BME280;29032;56.028;92.904;2023-09-30T03:20:15;99560.16;;;12.43;56.18
42887;BME280;29032;56.028;92.904;2023-09-30T03:25:20;99566.59;;;12.52;56.66
42887;BME280;29032;56.028;92.904;2023-09-30T03:30:22;99554.41;;;12.55;56.54
42887;BME280;29032;56.028;92.904;2023-09-30T03:35:24;99559.16;;;12.73;55.54
42887;BME280;29032;56.028;92.904;2023-09-30T03:40:28;99556.59;;;12.88;54.99
42887;BME280;29032;56.028;92.904;2023-09-30T03:45:30;99539.69;;;12.86;54.76
42887;BME280;29032;56.028;92.904;2023-09-30T03:50:32;99538.50;;;12.95;54.69
42887;BME280;29032;56.028;92.904;2023-09-30T03:55:37;99534.22;;;13.20;54.52
42887;BME280;29032;56.028;92.904;2023-09-30T04:00:39;99527.25;;;13.27;54.28
42887;BME280;29032;56.028;92.904;2023-09-30T04:05:42;99531.22;;;13.32;53.68
42887;BME280;29032;56.028;92.904;2023-09-30T04:10:45;99521.88;;;13.42;54.16
42887;BME280;29032;56.028;92.904;2023-09-30T04:15:48;99512.69;;;13.47;53.91
42887;BME280;29032;56.028;92.904;2023-09-30T04:20:50;99520.03;;;13.58;53.34
42887;BME280;29032;56.028;92.904;2023-09-30T04:25:53;99506.19;;;13.66;53.45
42887;BME280;29032;56.028;92.904;2023-09-30T04:30:55;99505.88;;;13.69;53.01
42887;BME280;29032;56.028;92.904;2023-09-30T04:35:57;99497.16;;;13.73;51.41
42887;BME280;29032;56.028;92.904;2023-09-30T04:41:01;99472.69;;;13.79;51.65
42887;BME280;29032;56.028;92.904;2023-09-30T04:46:03;99458.81;;;13.87;51.46
42887;BME280;29032;56.028;92.904;2023-09-30T04:51:07;99461.41;;;14.05;51.29
42887;BME280;29032;56.028;92.904;2023-09-30T04:56:10;99457.06;;;14.18;50.32
42887;BME280;29032;56.028;92.904;2023-09-30T05:01:12;99445.75;;;14.23;50.16
42887;BME280;29032;56.028;92.904;2023-09-30T05:06:14;99448.25;;;14.34;50.37
42887;BME280;29032;56.028;92.904;2023-09-30T05:11:18;99427.72;;;14.53;50.72
42887;BME280;29032;56.028;92.904;2023-09-30T05:16:20;99425.94;;;14.63;48.93
42887;BME280;29032;56.028;92.904;2023-09-30T05:21:22;99429.88;;;14.68;49.55
42887;BME280;29032;56.028;92.904;2023-09-30T05:26:26;99420.25;;;14.76;50.09
42887;BME280;29032;56.028;92.904;2023-09-30T05:31:28;99425.09;;;14.76;48.99
42887;BME280;29032;56.028;92.904;2023-09-30T05:36:30;99415.69;;;14.94;48.49
42887;BME280;29032;56.028;92.904;2023-09-30T05:41:33;99400.47;;;15.10;48.13
42887;BME280;29032;56.028;92.904;2023-09-30T05:46:35;99401.59;;;15.07;47.63
42887;BME280;29032;56.028;92.904;2023-09-30T05:51:37;99388.13;;;14.98;47.75
42887;BME280;29032;56.028;92.904;2023-09-30T05:56:41;99386.81;;;14.99;48.17
42887;BME280;29032;56.028;92.904;2023-09-30T06:01:43;99387.78;;;15.02;48.26
42887;BME280;29032;56.028;92.904;2023-09-30T06:06:45;99371.81;;;15.17;47.65
42887;BME280;29032;56.028;92.904;2023-09-30T06:11:48;99364.22;;;15.41;47.68
42887;BME280;29032;56.028;92.904;2023-09-30T06:16:51;99348.38;;;15.43;46.81
42887;BME280;29032;56.028;92.904;2023-09-30T06:21:53;99342.81;;;15.51;45.81
42887;BME280;29032;56.028;92.904;2023-09-30T06:26:56;99344.31;;;15.67;46.34
42887;BME280;29032;56.028;92.904;2023-09-30T06:31:58;99335.75;;;15.73;45.25
42887;BME280;29032;56.028;92.904;2023-09-30T06:37:00;99323.06;;;15.80;45.13
42887;BME280;29032;56.028;92.904;2023-09-30T06:42:04;99326.63;;;15.88;44.57
42887;BME280;29032;56.028;92.904;2023-09-30T06:47:06;99323.81;;;15.88;44.29
42887;BME280;29032;56.028;92.904;2023-09-30T06:52:08;99311.69;;;15.93;43.92
42887;BME280;29032;56.028;92.904;2023-09-30T06:57:11;99307.03;;;15.95;44.34
42887;BME280;29032;56.028;92.904;2023-09-30T07:02:13;99300.13;;;15.89;44.16
42887;BME280;29032;56.028;92.904;2023-09-30T07:07:15;99296.22;;;15.92;43.46
42887;BME280;29032;56.028;92.904;2023-09-30T07:12:19;99290.59;;;16.07;43.27
42887;BME280;29032;56.028;92.904;2023-09-30T07:17:21;99282.53;;;16.19;43.39
42887;BME280;29032;56.028;92.904;2023-09-30T07:22:23;99281.56;;;16.32;42.26
42887;BME280;29032;56.028;92.904;2023-09-30T07:27:26;99280.97;;;16.33;42.38
42887;BME280;29032;56.028;92.904;2023-09-30T07:32:28;99275.63;;;16.20;42.13
42887;BME280;29032;56.028;92.904;2023-09-30T07:37:30;99276.19;;;16.18;43.14
42887;BME280;29032;56.028;92.904;2023-09-30T07:42:34;99285.28;;;16.26;42.48
42887;BME280;29032;56.028;92.904;2023-09-30T07:47:36;99267.78;;;16.18;42.59
42887;BME280;29032;56.028;92.904;2023-09-30T07:52:38;99266.47;;;16.19;42.66
42887;BME280;29032;56.028;92.904;2023-09-30T07:57:43;99259.56;;;16.28;42.45
42887;BME280;29032;56.028;92.904;2023-09-30T08:02:45;99256.53;;;16.34;42.65
42887;BME280;29032;56.028;92.904;2023-09-30T08:07:47;99247.88;;;16.47;41.94
42887;BME280;29032;56.028;92.904;2023-09-30T08:12:50;99250.84;;;16.56;42.17
42887;BME280;29032;56.028;92.904;2023-09-30T08:17:52;99252.94;;;16.48;42.19
42887;BME280;29032;56.028;92.904;2023-09-30T08:22:54;99245.66;;;16.45;41.87
42887;BME280;29032;56.028;92.904;2023-09-30T08:27:58;99237.06;;;16.51;41.97
42887;BME280;29032;56.028;92.904;2023-09-30T08:33:00;99228.47;;;16.49;42.12
42887;BME280;29032;56.028;92.904;2023-09-30T08:38:02;99221.16;;;16.53;42.35
42887;BME280;29032;56.028;92.904;2023-09-30T08:43:05;99216.25;;;16.62;43.59
42887;BME280;29032;56.028;92.904;2023-09-30T08:48:12;99209.75;;;16.59;42.54
42887;BME280;29032;56.028;92.904;2023-09-30T08:53:16;99216.25;;;16.62;42.28
42887;BME280;29032;56.028;92.904;2023-09-30T08:58:20;99204.34;;;16.53;43.27
42887;BME280;29032;56.028;92.904;2023-09-30T09:03:28;99214.06;;;16.52;43.27
42887;BME280;29032;56.028;92.904;2023-09-30T09:08:30;99207.06;;;16.36;44.83
42887;BME280;29032;56.028;92.904;2023-09-30T09:13:45;99206.06;;;16.49;43.08
42887;BME280;29032;56.028;92.904;2023-09-30T09:18:48;99205.16;;;16.39;41.97
42887;BME280;29032;56.028;92.904;2023-09-30T09:23:51;99190.06;;;16.42;41.58
42887;BME280;29032;56.028;92.904;2023-09-30T09:28:58;99185.31;;;16.52;43.36
42887;BME280;29032;56.028;92.904;2023-09-30T09:34:01;99181.06;;;16.43;45.37
42887;BME280;29032;56.028;92.904;2023-09-30T09:39:03;99182.63;;;16.29;44.82
42887;BME280;29032;56.028;92.904;2023-09-30T09:44:07;99173.50;;;16.28;46.84
42887;BME280;29032;56.028;92.904;2023-09-30T09:49:09;99166.97;;;16.26;44.13
42887;BME280;29032;56.028;92.904;2023-09-30T09:54:12;99164.56;;;16.22;46.75
42887;BME280;29032;56.028;92.904;2023-09-30T09:59:16;99157.28;;;16.27;45.04
42887;BME280;29032;56.028;92.904;2023-09-30T10:04:18;99147.63;;;16.13;47.85
42887;BME280;29032;56.028;92.904;2023-09-30T10:09:20;99138.31;;;16.02;48.77
42887;BME280;29032;56.028;92.904;2023-09-30T10:14:31;99129.72;;;16.08;49.35
42887;BME280;29032;56.028;92.904;2023-09-30T10:19:33;99123.50;;;15.85;49.95
42887;BME280;29032;56.028;92.904;2023-09-30T10:24:35;99122.41;;;15.72;50.65
42887;BME280;29032;56.028;92.904;2023-09-30T10:29:42;99117.16;;;15.77;49.71
42887;BME280;29032;56.028;92.904;2023-09-30T10:34:47;99125.25;;;16.05;48.07
42887;BME280;29032;56.028;92.904;2023-09-30T10:39:54;99110.06;;;15.75;51.16
42887;BME280;29032;56.028;92.904;2023-09-30T10:44:58;99102.25;;;15.66;50.89
42887;BME280;29032;56.028;92.904;2023-09-30T10:50:00;99099.28;;;15.64;48.71
42887;BME280;29032;56.028;92.904;2023-09-30T10:55:05;99100.16;;;15.82;47.20
42887;BME280;29032;56.028;92.904;2023-09-30T11:00:10;99092.88;;;15.87;48.82
42887;BME280;29032;56.028;92.904;2023-09-30T11:05:13;99090.31;;;15.73;47.17
42887;BME280;29032;56.028;92.904;2023-09-30T11:10:16;99089.94;;;15.69;49.00
42887;BME280;29032;56.028;92.904;2023-09-30T11:15:20;99089.41;;;15.63;48.36
42887;BME280;29032;56.028;92.904;2023-09-30T11:20:22;99073.19;;;15.54;48.25
42887;BME280;29032;56.028;92.904;2023-09-30T11:25:24;99068.97;;;15.38;49.69
42887;BME280;29032;56.028;92.904;2023-09-30T11:30:28;99064.69;;;15.37;50.52
42887;BME280;29032;56.028;92.904;2023-09-30T11:35:30;99077.56;;;15.25;49.60
42887;BME280;29032;56.028;92.904;2023-09-30T11:40:32;99068.44;;;15.16;50.99
42887;BME280;29032;56.028;92.904;2023-09-30T11:45:35;99071.81;;;15.23;50.32
42887;BME280;29032;56.028;92.904;2023-09-30T11:50:47;99064.13;;;15.31;50.05
42887;BME280;29032;56.028;92.904;2023-09-30T11:55:49;99063.25;;;15.05;50.25
42887;BME280;29032;56.028;92.904;2023-09-30T12:00:54;99062.13;;;15.08;50.20
42887;BME280;29032;56.028;92.904;2023-09-30T12:05:57;99059.53;;;14.95;51.47
42887;BME280;29032;56.028;92.904;2023-09-30T12:10:59;99069.97;;;14.95;51.06
42887;BME280;29032;56.028;92.904;2023-09-30T12:16:03;99062.34;;;14.95;51.78
42887;BME280;29032;56.028;92.904;2023-09-30T12:21:05;99061.97;;;14.91;48.84
42887;BME280;29032;56.028;92.904;2023-09-30T12:26:07;99063.25;;;14.90;51.65
42887;BME280;29032;56.028;92.904;2023-09-30T12:31:11;99072.78;;;14.95;52.11
42887;BME280;29032;56.028;92.904;2023-09-30T12:36:13;99069.59;;;14.83;51.30
42887;BME280;29032;56.028;92.904;2023-09-30T12:41:15;99061.78;;;14.81;52.14
42887;BME280;29032;56.028;92.904;2023-09-30T12:46:18;99062.91;;;14.86;52.32
42887;BME280;29032;56.028;92.904;2023-09-30T12:51:20;99071.09;;;14.76;52.17
42887;BME280;29032;56.028;92.904;2023-09-30T12:56:22;99071.09;;;14.84;50.67
42887;BME280;29032;56.028;92.904;2023-09-30T13:01:26;99067.53;;;14.91;51.23
42887;BME280;29032;56.028;92.904;2023-09-30T13:06:28;99063.66;;;14.79;51.55
42887;BME280;29032;56.028;92.904;2023-09-30T13:11:30;99061.41;;;14.70;51.74
42887;BME280;29032;56.028;92.904;2023-09-30T13:16:33;99074.28;;;14.65;52.03
42887;BME280;29032;56.028;92.904;2023-09-30T13:21:35;99064.91;;;14.47;52.56
42887;BME280;29032;56.028;92.904;2023-09-30T13:26:37;99068.63;;;14.42;52.54
42887;BME280;29032;56.028;92.904;2023-09-30T13:31:41;99073.66;;;14.44;51.72
42887;BME280;29032;56.028;92.904;2023-09-30T13:36:43;99075.13;;;14.29;53.20
42887;BME280;29032;56.028;92.904;2023-09-30T13:41:45;99068.97;;;14.23;52.59
42887;BME280;29032;56.028;92.904;2023-09-30T13:46:49;99079.94;;;14.29;53.76
42887;BME280;29032;56.028;92.904;2023-09-30T13:51:51;99082.94;;;14.31;52.03
42887;BME280;29032;56.028;92.904;2023-09-30T13:56:53;99099.16;;;14.40;51.46
42887;BME280;29032;56.028;92.904;2023-09-30T14:01:56;99109.41;;;14.45;50.85
42887;BME280;29032;56.028;92.904;2023-09-30T14:06:58;99111.94;;;14.28;50.69
42887;BME280;29032;56.028;92.904;2023-09-30T14:12:00;99106.16;;;14.10;51.27
42887;BME280;29032;56.028;92.904;2023-09-30T14:17:04;99116.19;;;14.06;52.47
42887;BME280;29032;56.028;92.904;2023-09-30T14:22:06;99114.84;;;13.99;52.91
42887;BME280;29032;56.028;92.904;2023-09-30T14:27:08;99100.19;;;14.06;53.73
42887;BME280;29032;56.028;92.904;2023-09-30T14:32:12;99094.09;;;14.23;53.01
42887;BME280;29032;56.028;92.904;2023-09-30T14:37:14;99094.44;;;14.20;54.37
42887;BME280;29032;56.028;92.904;2023-09-30T14:42:16;99095.56;;;14.17;55.29
42887;BME280;29032;56.028;92.904;2023-09-30T14:47:19;99092.97;;;14.19;55.10
42887;BME280;29032;56.028;92.904;2023-09-30T14:52:21;99094.41;;;14.04;55.87
42887;BME280;29032;56.028;92.904;2023-09-30T14:57:24;99086.56;;;13.95;56.01
42887;BME280;29032;56.028;92.904;2023-09-30T15:02:28;99086.22;;;14.06;55.68
42887;BME280;29032;56.028;92.904;2023-09-30T15:07:30;99078.44;;;14.13;54.51
42887;BME280;29032;56.028;92.904;2023-09-30T15:12:32;99075.50;;;14.26;54.54
42887;BME280;29032;56.028;92.904;2023-09-30T15:17:35;99082.56;;;14.42;54.27
42887;BME280;29032;56.028;92.904;2023-09-30T15:22:37;99078.13;;;14.47;53.48
42887;BME280;29032;56.028;92.904;2023-09-30T15:27:40;99082.22;;;14.53;53.08
42887;BME280;29032;56.028;92.904;2023-09-30T15:32:43;99075.38;;;14.62;53.19
42887;BME280;29032;56.028;92.904;2023-09-30T15:37:45;99079.25;;;14.59;52.98
42887;BME280;29032;56.028;92.904;2023-09-30T15:42:47;99078.88;;;14.55;54.18
42887;BME280;29032;56.028;92.904;2023-09-30T15:47:51;99071.25;;;14.55;54.24
42887;BME280;29032;56.028;92.904;2023-09-30T15:52:53;99065.09;;;14.49;53.03
42887;BME280;29032;56.028;92.904;2023-09-30T15:57:55;99072.16;;;14.50;52.76
42887;BME280;29032;56.028;92.904;2023-09-30T16:02:58;99068.09;;;14.51;52.81
42887;BME280;29032;56.028;92.904;2023-09-30T16:08:00;99059.91;;;14.46;52.77
42887;BME280;29032;56.028;92.904;2023-09-30T16:13:03;99058.03;;;14.48;52.86
42887;BME280;29032;56.028;92.904;2023-09-30T16:18:07;99062.88;;;14.55;52.80
42887;BME280;29032;56.028;92.904;2023-09-30T16:23:09;99080.34;;;14.48;52.72
42887;BME280;29032;56.028;92.904;2023-09-30T16:28:11;99084.84;;;14.44;53.12
42887;BME280;29032;56.028;92.904;2023-09-30T16:33:15;99088.56;;;14.46;52.95
42887;BME280;29032;56.028;92.904;2023-09-30T16:38:17;99098.59;;;14.42;52.96
42887;BME280;29032;56.028;92.904;2023-09-30T16:43:19;99101.19;;;14.39;52.11
42887;BME280;29032;56.028;92.904;2023-09-30T16:48:22;99113.66;;;14.31;52.15
42887;BME280;29032;56.028;92.904;2023-09-30T16:53:24;99117.13;;;14.08;52.27
42887;BME280;29032;56.028;92.904;2023-09-30T16:58:26;99144.69;;;13.76;53.45
42887;BME280;29032;56.028;92.904;2023-09-30T17:03:30;99143.22;;;13.46;53.85
42887;BME280;29032;56.028;92.904;2023-09-30T17:08:32;99149.91;;;13.22;54.07
42887;BME280;29032;56.028;92.904;2023-09-30T17:13:34;99160.00;;;13.05;53.56
42887;BME280;29032;56.028;92.904;2023-09-30T17:18:37;99169.72;;;12.90;54.12
42887;BME280;29032;56.028;92.904;2023-09-30T17:23:40;99168.97;;;12.69;54.64
42887;BME280;29032;56.028;92.904;2023-09-30T17:28:42;99179.94;;;12.54;54.64
42887;BME280;29032;56.028;92.904;2023-09-30T17:33:45;99196.88;;;12.42;55.13
42887;BME280;29032;56.028;92.904;2023-09-30T17:38:47;99185.97;;;12.31;54.76
42887;BME280;29032;56.028;92.904;2023-09-30T17:43:49;99192.44;;;12.26;55.21
42887;BME280;29032;56.028;92.904;2023-09-30T17:48:54;99239.72;;;12.26;55.17
42887;BME280;29032;56.028;92.904;2023-09-30T17:53:56;99243.03;;;11.85;56.10
42887;BME280;29032;56.028;92.904;2023-09-30T17:58:58;99265.78;;;11.57;54.55
42887;BME280;29032;56.028;92.904;2023-09-30T18:04:02;99281.66;;;11.11;54.05
42887;BME280;29032;56.028;92.904;2023-09-30T18:09:04;99291.97;;;10.60;54.42
42887;BME280;29032;56.028;92.904;2023-09-30T18:14:06;99308.94;;;10.32;54.13
42887;BME280;29032;56.028;92.904;2023-09-30T18:19:10;99314.16;;;10.16;54.89
42887;BME280;29032;56.028;92.904;2023-09-30T18:24:12;99325.13;;;10.03;54.21
42887;BME280;29032;56.028;92.904;2023-09-30T18:29:14;99339.63;;;9.90;53.63
42887;BME280;29032;56.028;92.904;2023-09-30T18:34:18;99335.66;;;9.86;53.98
42887;BME280;29032;56.028;92.904;2023-09-30T18:39:20;99352.38;;;9.75;54.26
42887;BME280;29032;56.028;92.904;2023-09-30T18:44:22;99373.81;;;9.68;54.59
42887;BME280;29032;56.028;92.904;2023-09-30T18:49:25;99399.56;;;9.63;54.75
42887;BME280;29032;56.028;92.904;2023-09-30T18:54:27;99418.84;;;9.44;55.18
42887;BME280;29032;56.028;92.904;2023-09-30T18:59:29;99422.66;;;9.36;53.98
42887;BME280;29032;56.028;92.904;2023-09-30T19:04:36;99446.03;;;9.40;52.86
42887;BME280;29032;56.028;92.904;2023-09-30T19:09:38;99460.31;;;9.03;52.00
42887;BME280;29032;56.028;92.904;2023-09-30T19:14:40;99473.25;;;8.73;51.21
42887;BME280;29032;56.028;92.904;2023-09-30T19:19:43;99480.31;;;8.51;51.45
42887;BME280;29032;56.028;92.904;2023-09-30T19:24:45;99492.91;;;8.24;51.59
42887;BME280;29032;56.028;92.904;2023-09-30T19:29:47;99501.94;;;8.14;51.49
42887;BME280;29032;56.028;92.904;2023-09-30T19:34:51;99507.72;;;8.16;51.48
42887;BME280;29032;56.028;92.904;2023-09-30T19:39:53;99520.28;;;8.05;52.13
42887;BME280;29032;56.028;92.904;2023-09-30T19:44:55;99525.09;;;8.11;53.13
42887;BME280;29032;56.028;92.904;2023-09-30T19:49:59;99543.94;;;8.18;52.89
42887;BME280;29032;56.028;92.904;2023-09-30T19:55:01;99543.91;;;8.06;53.36
42887;BME280;29032;56.028;92.904;2023-09-30T20:00:03;99553.72;;;8.07;53.02
42887;BME280;29032;56.028;92.904;2023-09-30T20:05:08;99575.09;;;8.18;53.83
42887;BME280;29032;56.028;92.904;2023-09-30T20:10:10;99587.41;;;8.12;52.82
42887;BME280;29032;56.028;92.904;2023-09-30T20:15:12;99604.97;;;8.08;53.88
42887;BME280;29032;56.028;92.904;2023-09-30T20:20:16;99606.47;;;7.98;52.72
42887;BME280;29032;56.028;92.904;2023-09-30T20:25:17;99617.19;;;7.79;52.39
42887;BME280;29032;56.028;92.904;2023-09-30T20:30:20;99618.19;;;7.71;52.14
42887;BME280;29032;56.028;92.904;2023-09-30T20:35:23;99641.72;;;7.55;52.35
42887;BME280;29032;56.028;92.904;2023-09-30T20:40:25;99644.59;;;7.35;52.40
42887;BME280;29032;56.028;92.904;2023-09-30T20:45:27;99658.06;;;7.21;51.58
42887;BME280;29032;56.028;92.904;2023-09-30T20:50:31;99675.91;;;7.26;52.43
42887;BME280;29032;56.028;92.904;2023-09-30T20:55:33;99698.66;;;7.15;51.98
42887;BME280;29032;56.028;92.904;2023-09-30T21:00:35;99697.94;;;6.89;50.10
42887;BME280;29032;56.028;92.904;2023-09-30T21:05:39;99720.78;;;6.63;50.02
42887;BME280;29032;56.028;92.904;2023-09-30T21:10:41;99719.09;;;6.46;49.16
42887;BME280;29032;56.028;92.904;2023-09-30T21:15:43;99729.59;;;6.41;49.93
42887;BME280;29032;56.028;92.904;2023-09-30T21:20:47;99750.50;;;6.54;48.37
42887;BME280;29032;56.028;92.904;2023-09-30T21:25:49;99756.81;;;6.34;47.86
42887;BME280;29032;56.028;92.904;2023-09-30T21:30:51;99772.88;;;6.35;48.27
42887;BME280;29032;56.028;92.904;2023-09-30T21:35:57;99782.91;;;6.38;47.95
42887;BME280;29032;56.028;92.904;2023-09-30T21:40:59;99799.00;;;6.20;47.43
42887;BME280;29032;56.028;92.904;2023-09-30T21:46:01;99800.91;;;6.13;46.97
42887;BME280;29032;56.028;92.904;2023-09-30T21:51:05;99821.50;;;6.18;47.96
42887;BME280;29032;56.028;92.904;2023-09-30T21:56:07;99838.03;;;6.18;46.75
42887;BME280;29032;56.028;92.904;2023-09-30T22:01:09;99844.03;;;6.16;46.54
42887;BME280;29032;56.028;92.904;2023-09-30T22:06:13;99857.69;;;6.26;46.91
42887;BME280;29032;56.028;92.904;2023-09-30T22:11:15;99865.28;;;6.31;47.07
42887;BME280;29032;56.028;92.904;2023-09-30T22:16:17;99875.13;;;6.37;46.43
42887;BME280;29032;56.028;92.904;2023-09-30T22:21:20;99876.31;;;6.51;46.54
42887;BME280;29032;56.028;92.904;2023-09-30T22:26:22;99888.50;;;6.44;46.72
42887;BME280;29032;56.028;92.904;2023-09-30T22:31:25;99891.88;;;6.34;46.93
42887;BME280;29032;56.028;92.904;2023-09-30T22:36:28;99906.78;;;6.42;47.68
42887;BME280;29032;56.028;92.904;2023-09-30T22:41:30;99916.75;;;6.39;47.30
42887;BME280;29032;56.028;92.904;2023-09-30T22:46:32;99912.63;;;6.29;46.95
42887;BME280;29032;56.028;92.904;2023-09-30T22:51:36;99925.72;;;6.34;47.23
42887;BME280;29032;56.028;92.904;2023-09-30T22:56:38;99925.72;;;6.34;47.61
42887;BME280;29032;56.028;92.904;2023-09-30T23:01:40;99925.31;;;6.41;47.07
42887;BME280;29032;56.028;92.904;2023-09-30T23:06:43;99933.72;;;6.53;47.20
42887;BME280;29032;56.028;92.904;2023-09-30T23:11:45;99936.22;;;6.51;46.61
42887;BME280;29032;56.028;92.904;2023-09-30T23:16:47;99947.31;;;6.56;46.57
42887;BME280;29032;56.028;92.904;2023-09-30T23:21:51;99948.22;;;6.68;46.42
42887;BME280;29032;56.028;92.904;2023-09-30T23:26:53;99957.88;;;6.58;46.95
42887;BME280;29032;56.028;92.904;2023-09-30T23:31:55;99953.25;;;6.49;46.58
42887;BME280;29032;56.028;92.904;2023-09-30T23:36:58;99958.09;;;6.39;47.11
42887;BME280;29032;56.028;92.904;2023-09-30T23:42:00;99966.63;;;6.21;47.86
42887;BME280;29032;56.028;92.904;2023-09-30T23:47:03;99974.22;;;6.11;46.90
42887;BME280;29032;56.028;92.904;2023-09-30T23:52:06;99985.72;;;6.10;47.29
42887;BME280;29032;56.028;92.904;2023-09-30T23:57:08;99990.56;;;6.15;46.56
